Time;durP1;ratioP1;P1;durP2;ratioP2;P2;SDS_P1;SDS_P2;PMS_P1;PMS_P2;Temp;Humidity;BMP_temperature;BMP_pressure;BME280_temperature;BME280_humidity;BME280_pressure;Samples;Min_cycle;Max_cycle;Signal;HPM_P1;HPM_P2
2023/03/20 00:00:51;;;;;;;12.93;8.43;;;11.40;99.90;;;;;;5074888;28;20521;-72
2023/03/20 00:03:18;;;;;;;16.20;8.17;;;11.30;99.90;;;;;;5070744;28;20455;-72
2023/03/20 00:05:45;;;;;;;12.80;6.77;;;11.10;99.90;;;;;;5070489;28;20929;-72
2023/03/20 00:08:12;;;;;;;14.83;7.63;;;11.10;99.90;;;;;;5071608;28;20484;-72
2023/03/20 00:10:42;;;;;;;9.07;4.97;;;11.10;99.90;;;;;;5070466;28;20533;-72
2023/03/20 00:13:15;;;;;;;15.60;7.97;;;11.10;99.90;;;;;;5075314;28;20444;-75
2023/03/20 00:15:44;;;;;;;13.33;6.30;;;11.10;99.90;;;;;;5074756;28;21002;-72
2023/03/20 00:18:17;;;;;;;15.63;7.67;;;11.10;99.90;;;;;;5070299;28;20535;-72
2023/03/20 00:20:45;;;;;;;14.90;9.67;;;11.00;99.90;;;;;;5072431;28;20421;-72
2023/03/20 00:23:12;;;;;;;17.83;8.30;;;10.90;99.90;;;;;;5072967;28;20933;-73
2023/03/20 00:25:40;;;;;;;17.43;8.60;;;11.00;99.90;;;;;;5074416;28;20459;-72
2023/03/20 00:28:39;;;;;;;20.27;8.97;;;11.10;99.90;;;;;;5072540;28;20444;-72
2023/03/20 00:31:18;;;;;;;19.60;9.40;;;11.10;99.90;;;;;;5049766;28;20485;-72
2023/03/20 00:33:45;;;;;;;25.20;8.90;;;11.00;99.90;;;;;;5068118;28;20618;-72
2023/03/20 00:36:12;;;;;;;20.43;9.17;;;10.90;99.90;;;;;;5057066;28;20486;-72
2023/03/20 00:38:39;;;;;;;16.63;8.77;;;10.90;99.90;;;;;;5070959;28;20536;-72
2023/03/20 00:41:21;;;;;;;16.77;8.63;;;10.80;99.90;;;;;;5072339;28;20867;-72
2023/03/20 00:43:52;;;;;;;19.00;8.00;;;10.70;99.90;;;;;;5072359;28;20451;-73
2023/03/20 00:46:19;;;;;;;13.77;8.10;;;10.80;99.90;;;;;;5072495;28;20489;-71
2023/03/20 00:48:47;;;;;;;20.50;10.50;;;10.80;99.90;;;;;;5060006;28;20517;-72
2023/03/20 00:51:14;;;;;;;21.13;8.03;;;10.80;99.90;;;;;;5074434;28;20466;-72
2023/03/20 00:53:41;;;;;;;15.50;9.43;;;10.90;99.90;;;;;;5067417;28;20457;-72
2023/03/20 00:56:30;;;;;;;17.63;9.13;;;10.80;99.90;;;;;;5061813;28;20493;-72
2023/03/20 00:58:59;;;;;;;17.90;9.80;;;10.80;99.90;;;;;;5061476;28;20481;-72
2023/03/20 01:01:27;;;;;;;23.27;9.10;;;10.70;99.90;;;;;;5071629;28;20899;-72
2023/03/20 01:03:55;;;;;;;15.13;8.17;;;10.70;99.90;;;;;;5074395;28;20457;-72
2023/03/20 01:06:22;;;;;;;14.30;7.57;;;10.80;99.90;;;;;;5051091;28;20491;-72
2023/03/20 01:08:49;;;;;;;21.00;9.53;;;10.70;99.90;;;;;;5065560;28;20890;-72
2023/03/20 01:11:23;;;;;;;16.30;8.60;;;10.80;99.90;;;;;;5063135;28;20487;-72
2023/03/20 01:13:52;;;;;;;17.43;8.57;;;10.70;99.90;;;;;;5059886;28;20822;-72
2023/03/20 01:16:24;;;;;;;19.43;9.23;;;10.70;99.90;;;;;;5057808;28;20504;-72
2023/03/20 01:18:52;;;;;;;18.13;8.90;;;10.80;99.90;;;;;;5064934;28;20460;-73
2023/03/20 01:21:20;;;;;;;15.10;8.63;;;10.70;99.90;;;;;;5069710;28;20462;-73
2023/03/20 01:23:48;;;;;;;20.97;10.20;;;10.70;99.90;;;;;;5075980;28;20437;-72
2023/03/20 01:26:26;;;;;;;14.40;6.43;;;10.50;99.90;;;;;;5066238;28;20472;-72
2023/03/20 01:28:52;;;;;;;16.90;8.37;;;10.40;99.90;;;;;;5084410;28;20500;-72
2023/03/20 01:31:21;;;;;;;20.40;11.70;;;10.40;99.90;;;;;;5063300;28;20872;-72
2023/03/20 01:33:48;;;;;;;18.20;8.57;;;10.30;99.90;;;;;;5068945;28;20432;-73
2023/03/20 01:36:20;;;;;;;21.30;10.23;;;10.40;99.90;;;;;;5073697;28;20561;-73
2023/03/20 01:38:50;;;;;;;15.60;7.57;;;10.50;99.90;;;;;;5073979;28;20508;-73
2023/03/20 01:41:18;;;;;;;16.90;9.17;;;10.40;99.90;;;;;;5064406;28;20433;-73
2023/03/20 01:43:45;;;;;;;11.80;8.93;;;10.40;99.90;;;;;;5065494;28;20463;-73
2023/03/20 01:46:20;;;;;;;12.80;6.30;;;10.40;99.90;;;;;;5072769;28;20469;-73
2023/03/20 01:49:28;;;;;;;21.63;7.90;;;10.40;99.90;;;;;;5065529;28;20443;-72
2023/03/20 01:51:57;;;;;;;19.70;8.30;;;10.40;99.90;;;;;;5072866;28;20481;-72
2023/03/20 01:54:28;;;;;;;14.13;7.93;;;10.40;99.90;;;;;;5073007;28;20517;-72
2023/03/20 01:57:00;;;;;;;12.20;5.10;;;10.50;99.90;;;;;;5069516;28;20580;-73
2023/03/20 01:59:33;;;;;;;18.60;8.97;;;10.50;99.90;;;;;;5055600;28;20462;-73
2023/03/20 02:02:00;;;;;;;14.07;5.60;;;10.40;99.90;;;;;;5073001;28;20857;-72
2023/03/20 02:04:34;;;;;;;12.80;6.87;;;10.40;99.90;;;;;;5070046;28;20492;-73
2023/03/20 02:07:01;;;;;;;14.67;7.47;;;10.50;99.90;;;;;;5073029;28;20465;-72
2023/03/20 02:09:28;;;;;;;14.33;6.87;;;10.50;99.90;;;;;;5069904;28;20877;-73
2023/03/20 02:11:57;;;;;;;14.07;7.67;;;10.50;99.90;;;;;;5070645;28;20867;-73
2023/03/20 02:14:26;;;;;;;20.00;8.27;;;10.50;99.90;;;;;;5070456;28;20410;-73
2023/03/20 02:16:54;;;;;;;18.20;9.23;;;10.60;99.90;;;;;;5072733;28;20463;-72
2023/03/20 02:19:26;;;;;;;18.73;7.90;;;10.60;99.90;;;;;;5073653;28;20807;-74
2023/03/20 02:22:23;;;;;;;21.70;8.27;;;10.60;99.90;;;;;;5072954;28;20526;-73
2023/03/20 02:25:37;;;;;;;17.77;8.93;;;10.60;99.90;;;;;;5072792;28;20528;-73
2023/03/20 02:28:33;;;;;;;17.00;8.23;;;10.50;99.90;;;;;;5071540;28;20524;-72
2023/03/20 02:31:30;;;;;;;12.13;7.20;;;10.60;99.90;;;;;;5073831;28;20468;-72
2023/03/20 02:34:37;;;;;;;12.73;7.90;;;10.50;99.90;;;;;;5085869;28;20451;-73
2023/03/20 02:37:26;;;;;;;14.60;7.70;;;10.50;99.90;;;;;;5074957;28;20470;-72
2023/03/20 02:40:07;;;;;;;13.67;7.17;;;10.40;99.90;;;;;;5072307;28;20487;-73
2023/03/20 02:42:44;;;;;;;17.33;8.00;;;10.50;99.90;;;;;;5074211;28;20963;-73
2023/03/20 02:45:18;;;;;;;16.70;8.00;;;10.50;99.90;;;;;;5070851;28;20989;-73
2023/03/20 02:47:51;;;;;;;13.00;7.93;;;10.40;99.90;;;;;;5071504;28;20531;-73
2023/03/20 02:50:27;;;;;;;9.93;5.93;;;10.50;99.90;;;;;;5064276;28;20437;-73
2023/03/20 02:53:05;;;;;;;14.83;8.60;;;10.70;99.90;;;;;;5062289;28;20530;-72
2023/03/20 02:55:42;;;;;;;12.90;7.60;;;10.80;99.90;;;;;;5063479;28;20418;-72
2023/03/20 02:58:15;;;;;;;15.13;7.77;;;10.70;99.90;;;;;;5065020;28;20474;-72
2023/03/20 03:00:50;;;;;;;13.07;7.30;;;10.70;99.90;;;;;;5069210;28;20531;-72
2023/03/20 03:03:22;;;;;;;18.13;8.17;;;10.80;99.90;;;;;;5071735;28;20466;-72
2023/03/20 03:05:54;;;;;;;20.37;6.60;;;10.60;99.90;;;;;;5066058;28;20462;-72
2023/03/20 03:08:26;;;;;;;11.40;5.60;;;10.70;99.90;;;;;;5069838;28;20450;-72
2023/03/20 03:10:59;;;;;;;7.60;4.93;;;10.50;99.90;;;;;;5084171;28;20416;-72
2023/03/20 03:13:29;;;;;;;8.80;4.70;;;10.40;99.90;;;;;;5078388;28;20470;-72
2023/03/20 03:16:01;;;;;;;5.87;3.57;;;10.30;99.90;;;;;;5065007;28;20497;-72
2023/03/20 03:18:31;;;;;;;6.57;3.93;;;10.20;99.90;;;;;;5070929;28;20823;-73
2023/03/20 03:21:01;;;;;;;6.80;4.10;;;10.10;99.90;;;;;;5078018;28;20794;-72
2023/03/20 03:23:34;;;;;;;7.87;4.67;;;10.20;99.90;;;;;;5067651;28;20478;-73
2023/03/20 03:26:07;;;;;;;9.40;5.17;;;10.30;99.90;;;;;;5073219;28;20811;-72
2023/03/20 03:28:40;;;;;;;6.70;4.40;;;10.30;99.90;;;;;;5071410;28;20465;-72
2023/03/20 03:31:09;;;;;;;11.80;5.97;;;10.40;99.90;;;;;;5065322;28;20439;-72
2023/03/20 03:33:39;;;;;;;13.40;8.40;;;10.30;99.90;;;;;;5078342;28;20432;-72
2023/03/20 03:36:13;;;;;;;9.60;4.83;;;10.40;99.90;;;;;;5075876;28;20438;-73
2023/03/20 03:38:45;;;;;;;11.47;5.90;;;10.50;99.90;;;;;;5068744;28;20804;-72
2023/03/20 03:41:29;;;;;;;12.90;6.10;;;10.60;99.90;;;;;;5075205;28;20478;-72
2023/03/20 03:44:05;;;;;;;8.23;5.43;;;10.50;99.90;;;;;;5073035;28;20438;-72
2023/03/20 03:46:39;;;;;;;11.57;6.37;;;10.50;99.90;;;;;;5085211;28;20481;-72
2023/03/20 03:49:09;;;;;;;12.77;6.63;;;10.40;99.90;;;;;;5071831;28;20432;-72
2023/03/20 03:51:42;;;;;;;12.33;7.33;;;10.50;99.90;;;;;;5074919;28;20429;-72
2023/03/20 03:54:13;;;;;;;18.77;6.40;;;10.40;99.90;;;;;;5060830;28;20451;-72
2023/03/20 03:56:44;;;;;;;13.50;7.80;;;10.30;99.90;;;;;;5071075;28;20919;-73
2023/03/20 03:59:17;;;;;;;14.13;6.83;;;10.30;99.90;;;;;;5071690;28;20435;-72
2023/03/20 04:01:46;;;;;;;7.00;4.30;;;10.30;99.90;;;;;;5074640;28;20481;-72
2023/03/20 04:04:15;;;;;;;9.17;5.30;;;10.20;99.90;;;;;;5074403;28;20454;-72
2023/03/20 04:06:42;;;;;;;10.80;6.77;;;10.30;99.90;;;;;;5074733;28;20501;-72
2023/03/20 04:09:10;;;;;;;10.10;4.63;;;10.20;99.90;;;;;;5056165;28;20513;-72
2023/03/20 04:11:37;;;;;;;9.00;4.73;;;10.20;99.90;;;;;;5072373;28;20450;-71
2023/03/20 04:14:05;;;;;;;7.53;5.23;;;10.20;99.90;;;;;;5075315;28;20462;-71
2023/03/20 04:16:32;;;;;;;7.73;4.03;;;10.20;99.90;;;;;;5065421;28;20500;-71
2023/03/20 04:18:59;;;;;;;10.83;4.10;;;10.10;99.90;;;;;;5069618;28;20542;-72
2023/03/20 04:21:28;;;;;;;7.40;3.43;;;10.20;99.90;;;;;;5069062;28;20461;-72
2023/03/20 04:23:56;;;;;;;5.90;2.70;;;10.30;99.90;;;;;;5056063;28;20814;-71
2023/03/20 04:26:23;;;;;;;7.23;3.50;;;10.30;99.90;;;;;;5068291;28;20485;-71
2023/03/20 04:28:50;;;;;;;6.60;3.10;;;10.30;99.90;;;;;;5074653;28;20463;-72
2023/03/20 04:31:19;;;;;;;5.63;4.43;;;10.30;99.90;;;;;;5077370;28;20548;-72
2023/03/20 04:33:46;;;;;;;7.30;3.37;;;10.20;99.90;;;;;;5079690;28;20427;-72
2023/03/20 04:36:13;;;;;;;5.60;2.67;;;10.20;99.90;;;;;;5082781;28;20448;-72
2023/03/20 04:38:41;;;;;;;5.10;3.83;;;10.10;99.90;;;;;;5079923;28;20458;-72
2023/03/20 04:41:08;;;;;;;4.40;2.53;;;10.20;99.90;;;;;;5076969;28;20462;-72
2023/03/20 04:43:35;;;;;;;5.87;3.30;;;10.30;99.90;;;;;;5063047;28;20457;-72
2023/03/20 04:46:02;;;;;;;3.50;2.53;;;10.20;99.90;;;;;;5068307;28;21042;-73
2023/03/20 04:48:30;;;;;;;3.00;2.20;;;10.30;99.90;;;;;;5077980;28;20887;-72
2023/03/20 04:50:57;;;;;;;4.83;2.70;;;10.30;99.90;;;;;;5091685;28;20409;-72
2023/03/20 04:53:24;;;;;;;4.27;2.80;;;10.10;99.90;;;;;;5078418;28;20481;-73
2023/03/20 04:55:52;;;;;;;2.10;1.60;;;10.10;99.90;;;;;;5065281;28;20440;-73
2023/03/20 04:58:19;;;;;;;5.60;2.70;;;10.00;99.90;;;;;;5070772;28;20970;-72
2023/03/20 05:00:47;;;;;;;6.83;3.10;;;10.00;99.90;;;;;;5074347;28;20447;-72
2023/03/20 05:03:14;;;;;;;8.93;2.87;;;9.90;99.90;;;;;;5074390;28;21001;-72
2023/03/20 05:05:42;;;;;;;6.57;3.00;;;9.90;99.90;;;;;;5074398;28;20574;-72
2023/03/20 05:08:09;;;;;;;6.97;2.67;;;9.90;99.90;;;;;;5065678;28;20479;-72
2023/03/20 05:10:36;;;;;;;4.83;2.33;;;9.80;99.90;;;;;;5053177;28;20418;-72
2023/03/20 05:13:04;;;;;;;4.50;2.53;;;9.80;99.90;;;;;;5082023;28;20456;-73
2023/03/20 05:15:30;;;;;;;7.30;3.00;;;9.90;99.90;;;;;;5063785;28;20504;-72
2023/03/20 05:17:57;;;;;;;7.20;3.10;;;9.90;99.90;;;;;;5075496;28;20498;-73
2023/03/20 05:20:24;;;;;;;8.03;4.37;;;9.90;99.90;;;;;;5063494;28;20549;-72
2023/03/20 05:22:52;;;;;;;10.03;4.23;;;9.80;99.90;;;;;;5075024;28;20455;-72
2023/03/20 05:25:19;;;;;;;11.13;4.77;;;9.80;99.90;;;;;;5075626;28;20513;-72
2023/03/20 05:27:47;;;;;;;6.13;3.90;;;9.80;99.90;;;;;;5064633;28;20472;-72
2023/03/20 05:30:18;;;;;;;6.67;3.80;;;9.70;99.90;;;;;;5076805;28;20547;-73
2023/03/20 05:32:45;;;;;;;8.03;4.37;;;9.80;99.90;;;;;;5072509;28;20422;-72
2023/03/20 05:35:12;;;;;;;6.00;3.30;;;9.80;99.90;;;;;;5066428;28;20470;-72
2023/03/20 05:37:40;;;;;;;7.60;3.70;;;9.70;99.90;;;;;;5066993;28;20565;-74
2023/03/20 05:40:13;;;;;;;10.10;3.23;;;9.70;99.90;;;;;;5073013;28;20457;-72
2023/03/20 05:42:40;;;;;;;6.07;4.27;;;9.70;99.90;;;;;;5072795;28;20500;-72
2023/03/20 05:45:08;;;;;;;6.10;3.83;;;9.80;99.90;;;;;;5070387;28;20493;-72
2023/03/20 05:47:35;;;;;;;7.43;4.70;;;9.80;99.90;;;;;;5077027;28;20535;-73
2023/03/20 05:50:02;;;;;;;6.53;4.40;;;9.90;99.90;;;;;;5078046;28;20527;-73
2023/03/20 05:52:30;;;;;;;10.27;5.00;;;9.90;99.90;;;;;;5071540;28;20514;-73
2023/03/20 05:54:58;;;;;;;13.23;6.13;;;9.80;99.90;;;;;;5087406;28;20867;-72
2023/03/20 05:57:26;;;;;;;8.77;5.50;;;9.70;99.90;;;;;;5062107;28;20561;-73
2023/03/20 05:59:54;;;;;;;11.80;4.90;;;9.60;99.90;;;;;;5057176;28;20452;-72
2023/03/20 06:02:21;;;;;;;8.87;4.53;;;9.70;99.90;;;;;;5063571;28;20494;-73
2023/03/20 06:04:48;;;;;;;8.27;5.23;;;9.80;99.90;;;;;;5072739;28;20451;-73
2023/03/20 06:07:15;;;;;;;12.03;5.90;;;9.70;99.90;;;;;;5072429;28;20482;-73
2023/03/20 06:09:42;;;;;;;9.23;5.60;;;9.70;99.90;;;;;;5064600;28;20819;-73
2023/03/20 06:12:09;;;;;;;22.03;6.93;;;9.70;99.90;;;;;;5054586;28;20538;-72
2023/03/20 06:14:38;;;;;;;15.23;7.10;;;9.60;99.90;;;;;;5066882;28;20463;-72
2023/03/20 06:17:06;;;;;;;11.97;5.53;;;9.60;99.90;;;;;;5062172;28;20473;-72
2023/03/20 06:19:33;;;;;;;11.27;6.47;;;9.60;99.90;;;;;;5068912;28;20916;-73
2023/03/20 06:22:01;;;;;;;10.10;5.50;;;9.50;99.90;;;;;;5053028;28;20789;-72
2023/03/20 06:24:37;;;;;;;8.80;5.87;;;9.50;99.90;;;;;;5067129;28;20459;-72
2023/03/20 06:27:04;;;;;;;14.60;7.63;;;9.50;99.90;;;;;;5060342;28;20952;-72
2023/03/20 06:29:31;;;;;;;15.60;6.83;;;9.60;99.90;;;;;;5073459;28;20476;-73
2023/03/20 06:31:59;;;;;;;12.57;6.20;;;9.60;99.90;;;;;;5089288;28;20450;-71
2023/03/20 06:34:26;;;;;;;13.73;7.63;;;9.50;99.90;;;;;;5073072;28;20509;-71
2023/03/20 06:36:53;;;;;;;14.27;5.90;;;9.50;99.90;;;;;;5073006;28;20528;-72
2023/03/20 06:39:20;;;;;;;15.40;6.17;;;9.40;99.90;;;;;;5073163;28;20533;-72
2023/03/20 06:41:47;;;;;;;13.00;7.60;;;9.50;99.90;;;;;;5075618;28;20456;-72
2023/03/20 06:44:14;;;;;;;10.90;5.83;;;9.60;99.90;;;;;;5072745;28;20553;-71
2023/03/20 06:46:41;;;;;;;9.20;4.83;;;9.50;99.90;;;;;;5057055;28;20537;-72
2023/03/20 06:49:09;;;;;;;11.10;5.73;;;9.40;99.90;;;;;;5068123;28;20479;-72
2023/03/20 06:51:36;;;;;;;16.70;5.87;;;9.40;99.90;;;;;;5071294;28;20421;-72
2023/03/20 06:54:03;;;;;;;10.17;5.77;;;9.30;99.90;;;;;;5072735;28;20958;-72
2023/03/20 06:56:31;;;;;;;14.43;6.67;;;9.40;99.90;;;;;;5072445;28;20493;-72
2023/03/20 06:58:58;;;;;;;9.33;4.80;;;9.40;99.90;;;;;;5065241;28;20484;-73
2023/03/20 07:01:26;;;;;;;7.97;5.43;;;9.40;99.90;;;;;;5064191;28;20448;-73
2023/03/20 07:03:53;;;;;;;10.73;5.00;;;9.30;99.90;;;;;;5076561;28;20468;-73
2023/03/20 07:06:22;;;;;;;11.40;4.97;;;9.40;99.90;;;;;;5061200;28;20526;-73
2023/03/20 07:08:50;;;;;;;11.50;5.37;;;9.40;99.90;;;;;;5058037;28;20453;-73
2023/03/20 07:11:17;;;;;;;7.83;4.80;;;9.60;99.90;;;;;;5053427;28;20803;-73
2023/03/20 07:13:44;;;;;;;8.53;4.27;;;9.50;99.90;;;;;;5066991;28;20500;-73
2023/03/20 07:16:11;;;;;;;7.07;4.07;;;9.50;99.90;;;;;;5072599;28;20467;-73
2023/03/20 07:18:38;;;;;;;9.50;4.67;;;9.60;99.90;;;;;;5059750;28;20471;-72
2023/03/20 07:21:08;;;;;;;15.33;5.10;;;9.70;99.90;;;;;;5078674;28;20454;-73
2023/03/20 07:23:36;;;;;;;10.63;3.73;;;9.70;99.90;;;;;;5071974;28;20453;-73
2023/03/20 07:26:05;;;;;;;10.60;4.80;;;9.90;99.90;;;;;;5070713;28;20824;-73
2023/03/20 07:28:32;;;;;;;7.33;3.70;;;10.10;99.90;;;;;;5071866;28;20454;-73
2023/03/20 07:31:01;;;;;;;3.83;2.90;;;10.00;99.90;;;;;;5070817;28;20561;-71
2023/03/20 07:33:28;;;;;;;7.30;3.63;;;10.00;99.90;;;;;;5072533;28;20599;-71
2023/03/20 07:35:55;;;;;;;7.80;4.33;;;10.00;99.90;;;;;;5072465;28;20910;-71
2023/03/20 07:38:23;;;;;;;8.53;3.90;;;10.20;99.90;;;;;;5072039;28;20454;-72
2023/03/20 07:40:54;;;;;;;7.87;3.43;;;10.40;99.90;;;;;;5072769;28;20449;-72
2023/03/20 07:43:21;;;;;;;7.20;3.23;;;10.30;99.90;;;;;;5072237;28;20473;-72
2023/03/20 07:45:47;;;;;;;8.27;3.80;;;10.30;99.90;;;;;;5088546;28;20401;-72
2023/03/20 07:48:15;;;;;;;4.23;2.50;;;10.30;99.90;;;;;;5073596;28;20493;-72
2023/03/20 07:50:42;;;;;;;5.50;3.07;;;10.40;99.90;;;;;;5090750;28;20532;-71
2023/03/20 07:53:10;;;;;;;8.60;4.70;;;10.50;99.90;;;;;;5085821;28;20563;-72
2023/03/20 07:55:40;;;;;;;6.70;3.80;;;10.60;99.90;;;;;;5044320;28;20529;-71
2023/03/20 07:58:13;;;;;;;5.37;3.57;;;10.60;99.90;;;;;;5075878;28;20442;-72
2023/03/20 08:00:40;;;;;;;5.97;3.53;;;10.90;99.90;;;;;;5068202;28;20508;-72
2023/03/20 08:03:07;;;;;;;6.23;2.80;;;11.00;99.90;;;;;;5071873;28;20504;-71
2023/03/20 08:05:34;;;;;;;7.33;3.13;;;10.90;99.90;;;;;;5075439;28;20525;-72
2023/03/20 08:08:01;;;;;;;5.13;2.83;;;10.80;99.90;;;;;;5067479;28;20491;-71
2023/03/20 08:10:28;;;;;;;5.40;2.40;;;10.70;99.90;;;;;;5063050;28;20483;-72
2023/03/20 08:12:55;;;;;;;6.47;2.27;;;10.80;99.90;;;;;;5081487;28;20498;-72
2023/03/20 08:15:25;;;;;;;4.60;2.00;;;10.70;99.90;;;;;;5066693;28;20863;-72
2023/03/20 08:17:52;;;;;;;4.03;2.20;;;10.60;99.90;;;;;;5032010;28;20513;-71
2023/03/20 08:20:20;;;;;;;5.43;2.33;;;10.50;99.90;;;;;;5064765;28;20460;-71
2023/03/20 08:22:48;;;;;;;6.53;3.73;;;10.50;99.90;;;;;;5072862;28;21022;-72
2023/03/20 08:25:15;;;;;;;4.73;2.90;;;10.40;99.90;;;;;;5074846;28;20454;-72
2023/03/20 08:27:43;;;;;;;7.50;3.60;;;10.40;99.90;;;;;;5075499;28;20518;-72
2023/03/20 08:30:12;;;;;;;3.87;2.30;;;10.60;99.90;;;;;;5084774;28;20524;-72
2023/03/20 08:32:41;;;;;;;3.93;3.43;;;10.90;99.90;;;;;;5089721;28;20435;-72
2023/03/20 08:35:10;;;;;;;5.13;3.03;;;11.30;99.90;;;;;;5067954;28;20976;-71
2023/03/20 08:37:37;;;;;;;4.30;2.47;;;11.80;99.90;;;;;;5080889;28;20511;-71
2023/03/20 08:40:06;;;;;;;3.53;2.37;;;11.90;99.90;;;;;;5080031;28;20439;-72
2023/03/20 08:42:33;;;;;;;6.00;4.10;;;11.70;99.90;;;;;;5074717;28;20834;-73
2023/03/20 08:45:00;;;;;;;6.17;5.07;;;11.40;99.90;;;;;;5059174;28;20532;-71
2023/03/20 08:47:27;;;;;;;15.73;4.87;;;11.20;99.90;;;;;;5074476;28;20479;-72
2023/03/20 08:49:55;;;;;;;8.43;5.50;;;11.30;99.90;;;;;;5077158;28;20481;-72
2023/03/20 08:52:22;;;;;;;5.60;3.33;;;11.40;99.90;;;;;;5069560;28;20456;-72
2023/03/20 08:54:50;;;;;;;6.77;4.20;;;11.50;99.90;;;;;;5057151;28;20558;-72
2023/03/20 08:57:17;;;;;;;7.20;3.77;;;11.40;99.90;;;;;;5073019;28;20462;-72
2023/03/20 08:59:43;;;;;;;7.70;4.30;;;11.50;99.90;;;;;;5058387;28;20494;-72
2023/03/20 09:02:11;;;;;;;7.50;2.20;;;11.60;99.90;;;;;;5062687;28;20527;-72
2023/03/20 09:04:39;;;;;;;8.13;3.40;;;11.60;99.90;;;;;;5068200;28;20558;-72
2023/03/20 09:07:08;;;;;;;6.03;4.70;;;11.20;99.90;;;;;;5071829;28;20989;-72
2023/03/20 09:09:35;;;;;;;7.50;4.00;;;11.00;99.90;;;;;;5072844;28;20470;-72
2023/03/20 09:12:02;;;;;;;3.53;2.80;;;11.00;99.90;;;;;;5073828;28;20450;-72
2023/03/20 09:14:29;;;;;;;6.43;3.60;;;11.10;99.90;;;;;;5076849;28;20546;-72
2023/03/20 09:16:56;;;;;;;5.43;4.07;;;11.10;99.90;;;;;;5072424;28;20477;-72
2023/03/20 09:19:23;;;;;;;6.80;3.50;;;11.30;99.90;;;;;;5063137;28;20457;-72
2023/03/20 09:21:50;;;;;;;3.53;2.47;;;11.10;99.90;;;;;;5069705;28;20522;-72
2023/03/20 09:24:19;;;;;;;3.40;2.30;;;11.10;99.90;;;;;;5073957;28;20555;-72
2023/03/20 09:26:45;;;;;;;3.33;2.30;;;10.90;99.90;;;;;;5073643;28;20570;-72
2023/03/20 09:29:12;;;;;;;4.13;2.57;;;10.90;99.90;;;;;;5073431;28;20443;-72
2023/03/20 09:31:39;;;;;;;8.50;3.03;;;11.00;99.90;;;;;;5071006;28;20519;-72
2023/03/20 09:34:07;;;;;;;4.20;2.80;;;11.10;99.90;;;;;;5074481;28;20460;-72
2023/03/20 09:36:34;;;;;;;5.00;2.40;;;11.10;99.90;;;;;;5054297;28;20537;-72
2023/03/20 09:39:01;;;;;;;8.50;4.90;;;11.00;99.90;;;;;;5054092;28;20442;-72
2023/03/20 09:41:35;;;;;;;6.43;2.70;;;11.00;99.90;;;;;;5073615;28;20451;-71
2023/03/20 09:44:19;;;;;;;6.50;3.57;;;11.10;99.90;;;;;;5073638;28;20433;-72
2023/03/20 09:47:08;;;;;;;3.50;1.90;;;11.10;99.90;;;;;;5073656;28;20937;-72
2023/03/20 09:49:45;;;;;;;5.60;2.67;;;11.10;99.90;;;;;;5074616;28;20446;-72
2023/03/20 09:52:21;;;;;;;4.13;3.73;;;11.10;99.90;;;;;;5055051;28;20439;-72
2023/03/20 09:54:51;;;;;;;7.37;4.10;;;11.20;99.90;;;;;;5059459;28;20413;-72
2023/03/20 09:57:25;;;;;;;4.90;3.13;;;11.20;99.90;;;;;;5071737;28;20474;-72
2023/03/20 09:59:57;;;;;;;6.17;2.43;;;11.20;99.90;;;;;;5061041;28;20434;-72
2023/03/20 10:02:36;;;;;;;4.13;2.60;;;11.30;99.90;;;;;;5068127;28;20526;-72
2023/03/20 10:05:15;;;;;;;7.03;3.93;;;11.30;99.90;;;;;;5054035;28;20460;-72
2023/03/20 10:07:42;;;;;;;6.20;2.63;;;11.30;99.90;;;;;;5071228;28;20553;-72
2023/03/20 10:10:13;;;;;;;8.60;3.10;;;11.10;99.90;;;;;;5054963;28;20944;-72
2023/03/20 10:12:56;;;;;;;6.33;3.60;;;11.10;99.90;;;;;;5071159;28;20451;-72
2023/03/20 10:15:36;;;;;;;3.80;3.07;;;11.20;99.90;;;;;;5058563;28;20537;-72
2023/03/20 10:18:11;;;;;;;5.27;3.73;;;11.10;99.90;;;;;;5055658;28;20551;-72
2023/03/20 10:20:46;;;;;;;2.90;2.60;;;11.10;99.90;;;;;;5067969;28;21018;-72
2023/03/20 10:23:20;;;;;;;3.10;2.80;;;11.20;99.90;;;;;;5073358;28;20448;-72
2023/03/20 10:25:52;;;;;;;6.80;5.37;;;11.30;99.90;;;;;;5072537;28;20470;-72
2023/03/20 10:28:24;;;;;;;2.60;2.17;;;11.50;99.90;;;;;;5071731;28;20800;-72
2023/03/20 10:31:01;;;;;;;3.77;2.43;;;11.50;99.90;;;;;;5084896;28;20507;-73
2023/03/20 10:33:43;;;;;;;4.33;2.43;;;11.50;99.90;;;;;;5069229;28;20927;-72
2023/03/20 10:36:24;;;;;;;5.77;1.70;;;11.20;99.90;;;;;;5072067;28;20471;-72
2023/03/20 10:38:58;;;;;;;2.37;1.67;;;11.10;99.90;;;;;;5074594;28;20525;-72
2023/03/20 10:41:29;;;;;;;9.63;4.20;;;11.10;99.90;;;;;;5073857;28;20709;-72
2023/03/20 10:43:59;;;;;;;2.43;1.70;;;11.00;99.90;;;;;;5072807;28;20450;-72
2023/03/20 10:46:31;;;;;;;6.20;2.70;;;11.20;99.90;;;;;;5072147;28;20466;-72
2023/03/20 10:49:03;;;;;;;4.77;2.47;;;11.40;99.90;;;;;;5062712;28;20453;-72
2023/03/20 10:51:38;;;;;;;3.97;1.73;;;11.50;99.90;;;;;;5084671;28;20845;-72
2023/03/20 10:54:15;;;;;;;2.10;1.90;;;11.70;99.90;;;;;;5073237;28;20439;-72
2023/03/20 10:56:49;;;;;;;3.57;1.60;;;11.70;99.90;;;;;;5070923;28;20478;-72
2023/03/20 10:59:22;;;;;;;3.20;1.80;;;11.80;99.90;;;;;;5061132;28;20459;-72
2023/03/20 11:01:53;;;;;;;4.80;1.80;;;11.60;99.90;;;;;;5070847;28;20504;-72
2023/03/20 11:04:20;;;;;;;5.20;1.77;;;11.50;99.90;;;;;;5063532;28;20879;-72
2023/03/20 11:06:55;;;;;;;3.30;1.93;;;11.50;99.90;;;;;;5065615;28;20466;-72
2023/03/20 11:09:28;;;;;;;3.60;2.27;;;11.50;99.90;;;;;;5055143;28;20434;-72
2023/03/20 11:11:57;;;;;;;1.93;1.43;;;11.50;99.90;;;;;;5055449;28;20493;-72
2023/03/20 11:14:32;;;;;;;2.80;1.70;;;11.70;99.90;;;;;;5061692;28;20463;-72
2023/03/20 11:17:02;;;;;;;2.07;1.57;;;11.50;99.90;;;;;;5070509;28;20472;-72
2023/03/20 11:19:33;;;;;;;1.87;1.70;;;11.60;99.90;;;;;;5071063;28;20496;-72
2023/03/20 11:22:07;;;;;;;2.90;2.03;;;11.50;99.90;;;;;;5062052;28;20823;-72
2023/03/20 11:24:37;;;;;;;2.70;1.80;;;11.60;99.90;;;;;;5065349;28;20503;-72
2023/03/20 11:27:10;;;;;;;1.50;1.30;;;11.60;99.90;;;;;;5075362;28;20455;-72
2023/03/20 11:29:39;;;;;;;2.67;1.80;;;11.60;99.90;;;;;;5090762;28;20476;-72
2023/03/20 11:32:15;;;;;;;2.43;2.20;;;11.60;99.90;;;;;;5085066;28;20448;-72
2023/03/20 11:34:42;;;;;;;2.70;1.67;;;12.00;99.90;;;;;;5077066;28;20445;-72
2023/03/20 11:37:23;;;;;;;4.57;2.27;;;12.10;99.90;;;;;;5071912;28;20466;-72
2023/03/20 11:39:58;;;;;;;1.60;1.50;;;12.20;99.90;;;;;;5067396;28;20438;-72
2023/03/20 11:42:27;;;;;;;1.50;1.40;;;12.20;99.90;;;;;;5076051;28;20443;-72
2023/03/20 11:45:01;;;;;;;3.10;1.87;;;12.20;99.90;;;;;;5076881;28;20508;-72
2023/03/20 11:47:32;;;;;;;4.80;2.17;;;12.50;99.90;;;;;;5075917;28;20445;-72
2023/03/20 11:50:02;;;;;;;4.00;1.90;;;12.60;99.90;;;;;;5067416;28;20458;-72
2023/03/20 11:52:32;;;;;;;2.60;2.20;;;12.60;99.90;;;;;;5074368;28;20466;-72
2023/03/20 11:55:02;;;;;;;4.67;2.70;;;12.80;99.90;;;;;;5069858;28;20447;-72
2023/03/20 11:57:33;;;;;;;3.20;2.00;;;12.70;99.90;;;;;;5069152;28;20447;-72
2023/03/20 12:00:06;;;;;;;3.33;2.00;;;12.50;99.90;;;;;;5062317;28;20443;-72
2023/03/20 12:02:35;;;;;;;2.50;1.30;;;12.30;99.90;;;;;;5068881;28;20809;-72
2023/03/20 12:05:18;;;;;;;4.80;2.53;;;12.00;99.90;;;;;;5055643;28;20447;-72
2023/03/20 12:07:48;;;;;;;2.13;1.80;;;12.10;99.90;;;;;;5055815;28;20910;-72
2023/03/20 12:10:18;;;;;;;6.90;3.00;;;12.40;99.90;;;;;;5055421;28;20608;-72
2023/03/20 12:12:49;;;;;;;5.97;1.93;;;12.50;99.90;;;;;;5066758;28;20450;-72
2023/03/20 12:15:22;;;;;;;2.60;1.93;;;12.00;99.90;;;;;;5060391;28;20447;-72
2023/03/20 12:17:55;;;;;;;2.20;1.70;;;12.10;99.90;;;;;;5075711;28;20526;-72
2023/03/20 12:20:35;;;;;;;4.20;2.90;;;12.00;99.90;;;;;;5073114;28;20891;-73
2023/03/20 12:23:11;;;;;;;1.60;1.50;;;11.90;99.90;;;;;;5062820;28;20444;-73
2023/03/20 12:25:44;;;;;;;3.20;1.67;;;11.70;99.90;;;;;;5055088;28;20426;-71
2023/03/20 12:28:18;;;;;;;6.50;2.80;;;11.60;99.90;;;;;;5054862;28;20954;-72
2023/03/20 12:31:06;;;;;;;1.97;1.87;;;11.50;99.90;;;;;;5066215;28;20545;-72
2023/03/20 12:33:41;;;;;;;6.27;2.20;;;11.70;99.90;;;;;;5062081;28;20502;-72
2023/03/20 12:36:15;;;;;;;8.00;2.03;;;11.70;99.90;;;;;;5073846;28;20568;-72
2023/03/20 12:38:43;;;;;;;2.93;2.53;;;11.70;99.90;;;;;;5062656;28;20455;-72
2023/03/20 12:41:14;;;;;;;2.87;1.90;;;11.60;99.90;;;;;;5079047;28;20521;-72
2023/03/20 12:44:13;;;;;;;4.73;2.00;;;11.60;99.90;;;;;;5083163;28;20470;-72
2023/03/20 12:46:50;;;;;;;9.37;3.67;;;11.60;99.90;;;;;;5080202;28;20565;-71
2023/03/20 12:49:31;;;;;;;2.30;2.10;;;11.90;99.90;;;;;;5067496;28;20487;-71
2023/03/20 12:52:05;;;;;;;2.70;2.40;;;11.80;99.90;;;;;;5068057;28;20451;-71
2023/03/20 12:55:00;;;;;;;2.40;2.10;;;11.60;99.90;;;;;;5075002;28;20484;-72
2023/03/20 12:57:37;;;;;;;2.10;1.90;;;11.60;99.90;;;;;;5074610;28;20470;-71
2023/03/20 13:00:16;;;;;;;6.10;3.40;;;11.30;99.90;;;;;;5075346;28;20485;-72
2023/03/20 13:02:57;;;;;;;5.17;2.40;;;11.20;99.90;;;;;;5075336;28;20453;-72
2023/03/20 13:05:35;;;;;;;12.33;2.83;;;11.50;99.90;;;;;;5056232;28;20490;-72